createdAt,value
2018-06-13T09:05:31.752Z,99923.70
2018-06-13T09:06:37.842Z,99928.62
2018-06-13T09:07:44.009Z,99921.12
2018-06-13T09:08:49.923Z,99923.14
2018-06-13T09:09:55.533Z,99925.66
2018-06-13T09:11:01.445Z,99922.42
2018-06-13T09:12:07.950Z,99917.67
2018-06-13T09:13:13.886Z,99913.94
2018-06-13T09:14:19.834Z,99916.27
2018-06-13T09:15:25.896Z,99918.81
2018-06-13T09:16:31.846Z,99919.97
2018-06-13T09:17:38.562Z,99924.98
2018-06-13T09:18:44.495Z,99925.70
2018-06-13T09:19:50.463Z,99929.19
2018-06-13T09:20:56.399Z,99925.82
2018-06-13T09:22:02.428Z,99929.53
2018-06-13T09:23:08.376Z,99936.28
2018-06-13T09:24:14.293Z,99933.20
2018-06-13T09:25:20.341Z,99928.59
2018-06-13T09:26:25.952Z,99933.77
2018-06-13T09:27:32.138Z,99926.03
2018-06-13T09:28:38.086Z,99929.66
2018-06-13T09:29:43.815Z,99932.23
2018-06-13T09:30:49.341Z,99933.58
2018-06-13T09:31:55.295Z,99932.45
2018-06-13T09:33:01.316Z,99925.23
2018-06-13T09:34:08.325Z,99930.03
2018-06-13T09:35:13.990Z,99925.92
2018-06-13T09:36:19.892Z,99927.06
2018-06-13T09:37:25.918Z,99926.02
2018-06-13T09:38:52.411Z,99932.37
2018-06-13T09:39:58.508Z,99922.63
2018-06-13T09:41:04.424Z,99922.77
2018-06-13T09:42:10.387Z,99919.44
2018-06-13T09:56:02.387Z,99927.80
2018-06-13T10:14:46.835Z,99940.79
2018-06-13T10:21:03.795Z,99948.91
2018-06-13T10:34:56.401Z,99947.87
2018-06-13T10:46:49.359Z,99964.95
2018-06-13T10:47:55.333Z,99956.69
2018-06-13T10:49:01.284Z,99958.37
2018-06-13T10:50:07.252Z,99956.65
2018-06-13T10:51:13.179Z,99961.55
2018-06-13T10:52:19.131Z,99955.79
2018-06-13T10:53:25.190Z,99956.13
2018-06-13T10:54:31.099Z,99958.84
2018-06-13T10:55:37.240Z,99963.37
2018-06-13T10:56:43.326Z,99966.48
2018-06-13T10:57:56.011Z,99967.05
2018-06-13T10:59:01.756Z,99966.30
2018-06-13T11:00:07.589Z,99975.02
2018-06-13T11:01:13.611Z,99975.09
2018-06-13T11:02:19.566Z,99974.15
2018-06-13T11:03:25.526Z,99978.70
2018-06-13T11:04:31.652Z,99977.94
2018-06-13T11:05:38.262Z,99975.65
2018-06-13T11:06:44.929Z,99978.00
2018-06-13T11:07:51.599Z,99980.59
2018-06-13T11:08:57.967Z,99976.67
2018-06-13T11:10:04.063Z,99975.22
2018-06-13T11:11:10.640Z,99974.94
2018-06-13T11:12:17.189Z,99974.67
2018-06-13T11:13:23.533Z,99974.25
2018-06-13T11:14:30.160Z,99973.67
2018-06-13T11:15:36.638Z,99976.81
2018-06-13T11:16:43.264Z,99977.23
2018-06-13T11:17:49.832Z,99979.52
2018-06-13T11:18:56.495Z,99973.95
2018-06-13T11:20:03.073Z,99976.12
2018-06-13T11:21:09.809Z,99975.53
2018-06-13T11:22:16.776Z,99975.94
2018-06-13T11:23:23.261Z,99978.12
2018-06-13T11:24:29.894Z,99975.94
2018-06-13T11:25:36.530Z,99977.91
2018-06-13T11:26:43.225Z,99968.95
2018-06-13T11:27:49.165Z,99975.88
2018-06-13T11:28:55.162Z,99974.55
2018-06-13T11:30:01.387Z,99972.50
2018-06-13T11:31:07.824Z,99972.73
2018-06-13T11:32:13.795Z,99967.98
2018-06-13T11:33:19.741Z,99971.70
2018-06-13T11:34:25.710Z,99971.22
2018-06-13T11:35:31.315Z,99975.81
2018-06-13T11:36:37.213Z,99975.81
2018-06-13T11:37:43.165Z,99970.02
2018-06-13T11:38:49.118Z,99975.69
2018-06-13T11:39:55.197Z,99981.07
2018-06-13T11:41:01.271Z,99977.03
2018-06-13T11:42:07.248Z,99977.66
2018-06-13T11:43:14.129Z,99979.53
2018-06-13T11:44:21.832Z,99977.53
2018-06-13T11:45:27.855Z,99978.92
2018-06-13T11:46:34.107Z,99978.86
2018-06-13T11:47:40.063Z,99975.48
2018-06-13T11:48:46.089Z,99977.03
2018-06-13T11:49:52.039Z,99969.89
2018-06-13T11:50:58.010Z,99972.08
2018-06-13T11:52:03.938Z,99975.28
2018-06-13T11:53:10.073Z,99978.34
2018-06-13T11:54:16.023Z,99973.80
2018-06-13T11:55:22.077Z,99974.42
2018-06-13T11:56:28.059Z,99974.53
2018-06-13T11:57:34.029Z,99972.24
2018-06-13T11:58:40.014Z,99965.46
2018-06-13T11:59:46.070Z,99969.45
2018-06-13T12:00:52.034Z,99967.55
2018-06-13T12:01:57.974Z,99969.65
2018-06-13T12:03:03.935Z,99970.49
2018-06-13T12:04:09.898Z,99966.33
2018-06-13T12:05:15.882Z,99966.37
2018-06-13T12:06:21.978Z,99966.98
2018-06-13T12:07:27.947Z,99966.64
2018-06-13T12:08:33.882Z,99964.60
2018-06-13T12:09:39.911Z,99965.61
2018-06-13T12:10:46.222Z,99967.27
2018-06-13T12:11:52.195Z,99968.78
2018-06-13T12:12:58.218Z,99967.68
2018-06-13T12:14:04.515Z,99966.30
2018-06-13T12:15:10.449Z,99966.70
2018-06-13T12:16:16.471Z,99970.16
2018-06-13T12:17:22.069Z,99963.95
2018-06-13T12:18:27.958Z,99962.17
2018-06-13T12:19:33.893Z,99966.81
2018-06-13T12:20:39.858Z,99968.95
2018-06-13T12:21:45.794Z,99964.56
2018-06-13T12:22:51.774Z,99968.55
2018-06-13T12:23:57.731Z,99972.77
2018-06-13T12:25:03.887Z,99967.03
2018-06-13T12:26:09.876Z,99968.72
2018-06-13T12:27:15.845Z,99967.66
2018-06-13T12:28:21.911Z,99964.67
2018-06-13T12:29:27.871Z,99966.50
2018-06-13T12:30:33.622Z,99967.83
2018-06-13T12:31:39.886Z,99969.48
2018-06-13T12:32:45.990Z,99966.25
2018-06-13T12:33:52.348Z,99966.25
2018-06-13T12:34:58.402Z,99968.15
2018-06-13T12:36:04.382Z,99964.16
2018-06-13T12:37:10.386Z,99964.97
2018-06-13T12:38:16.034Z,99961.77
2018-06-13T12:39:21.946Z,99955.88
2018-06-13T12:40:27.954Z,99962.17
2018-06-13T12:41:33.924Z,99961.86
2018-06-13T12:42:39.919Z,99969.65
2018-06-13T12:43:45.885Z,99961.84
2018-06-13T12:44:51.901Z,99960.38
2018-06-13T12:45:58.075Z,99963.08
2018-06-13T12:47:04.934Z,99961.11
2018-06-13T12:48:10.930Z,99960.23
2018-06-13T12:49:16.870Z,99960.86
2018-06-13T12:50:22.828Z,99959.00
2018-06-13T12:51:28.839Z,99961.31
2018-06-13T12:52:34.786Z,99963.27
2018-06-13T12:53:40.964Z,99958.62
2018-06-13T12:54:47.262Z,99963.29
2018-06-13T12:55:53.237Z,99958.19
2018-06-13T12:56:59.222Z,99955.34
2018-06-13T12:58:05.551Z,99962.44
2018-06-13T12:59:11.913Z,99958.75
2018-06-13T13:00:18.034Z,99959.81
2018-06-13T13:01:24.012Z,99959.45
2018-06-13T13:02:30.014Z,99961.23
2018-06-13T13:03:36.137Z,99958.92
2018-06-13T13:04:42.676Z,99964.02
2018-06-13T13:05:48.803Z,99962.50
2018-06-13T13:06:55.140Z,99958.78
2018-06-13T13:08:01.171Z,99956.83
2018-06-13T13:09:11.623Z,99958.92
2018-06-13T13:10:17.859Z,99965.32
2018-06-13T13:11:23.832Z,99963.47
2018-06-13T13:12:29.803Z,99957.92
2018-06-13T13:13:35.897Z,99956.63
2018-06-13T13:14:41.876Z,99959.34
2018-06-13T13:15:49.274Z,99956.98
2018-06-13T13:16:57.403Z,99956.83
2018-06-13T13:18:06.279Z,99951.72
2018-06-13T13:19:12.339Z,99956.50
2018-06-13T13:20:18.290Z,99953.45
2018-06-13T13:21:24.281Z,99951.31
2018-06-13T13:22:30.237Z,99964.98
2018-06-13T13:23:36.316Z,99962.92
2018-06-13T13:24:42.357Z,99958.13
2018-06-13T13:25:49.066Z,99957.94
2018-06-13T13:26:55.211Z,99961.48
2018-06-13T13:28:01.698Z,99950.34
2018-06-13T13:29:07.851Z,99958.13
2018-06-13T13:30:13.874Z,99958.30
2018-06-13T13:31:20.061Z,99957.59
2018-06-13T13:32:26.213Z,99959.27
2018-06-13T13:33:32.552Z,99957.24
2018-06-13T13:34:38.692Z,99962.11
2018-06-13T13:35:45.515Z,99958.33
2018-06-13T13:36:52.467Z,99959.94
2018-06-13T13:37:58.960Z,99964.01
2018-06-13T13:39:08.585Z,99959.34
2018-06-13T13:40:15.474Z,99961.06
2018-06-13T13:41:21.970Z,99964.12
2018-06-13T13:42:30.386Z,99958.44
2018-06-13T13:43:36.704Z,99966.92
2018-06-13T13:44:42.978Z,99967.77
2018-06-13T13:45:50.789Z,99961.70
2018-06-13T13:46:57.688Z,99963.55
2018-06-13T13:48:04.535Z,99966.75
2018-06-13T13:49:11.466Z,99965.41
2018-06-13T13:50:18.633Z,99970.56
2018-06-13T13:51:26.285Z,99964.89
2018-06-13T13:52:32.973Z,99964.50
2018-06-13T13:53:39.995Z,99966.05
2018-06-13T13:54:46.629Z,99964.39
2018-06-13T13:55:53.704Z,99973.52
2018-06-13T13:57:00.436Z,99976.63
2018-06-13T13:58:08.660Z,99975.89
2018-06-13T13:59:16.762Z,99976.92
2018-06-13T14:00:23.736Z,99979.05
2018-06-13T14:01:30.447Z,99982.17
2018-06-13T14:02:38.792Z,99985.58
2018-06-13T14:03:45.975Z,99982.62
2018-06-13T14:04:53.364Z,99987.20
2018-06-13T14:06:01.353Z,99993.14
2018-06-13T14:07:09.290Z,99989.97
2018-06-13T14:08:17.932Z,99985.09
2018-06-13T14:09:24.529Z,99985.17
2018-06-13T14:10:31.520Z,99992.85
2018-06-13T14:11:38.704Z,99993.61
2018-06-13T14:12:46.906Z,99988.64
2018-06-13T14:13:53.872Z,99986.17
2018-06-13T14:15:02.810Z,99988.64
2018-06-13T14:16:10.152Z,99992.33
2018-06-13T14:17:18.997Z,99990.16
2018-06-13T14:18:26.660Z,99985.49
2018-06-13T14:19:33.954Z,99984.79
2018-06-13T14:20:41.351Z,99986.12
2018-06-13T14:21:49.861Z,99991.36
2018-06-13T14:22:57.457Z,99991.63
2018-06-13T14:24:04.652Z,99995.13
2018-06-13T14:25:11.518Z,99993.14
2018-06-13T14:26:18.673Z,99997.44
2018-06-13T14:27:25.635Z,99993.31
2018-06-13T14:28:34.055Z,99997.92
2018-06-13T14:29:41.892Z,99999.13
2018-06-13T14:30:48.736Z,99996.16
2018-06-13T14:31:55.854Z,99995.17
2018-06-13T14:33:04.997Z,99997.00
2018-06-13T14:34:13.154Z,99995.05
2018-06-13T14:35:20.009Z,100001.97
2018-06-13T14:36:27.033Z,99999.80
2018-06-13T14:37:34.672Z,100001.12
2018-06-13T14:38:41.151Z,100002.02
2018-06-13T14:39:47.753Z,100004.73
2018-06-13T14:40:57.419Z,99999.92
2018-06-13T14:42:04.875Z,100004.95
2018-06-13T14:43:11.608Z,100002.47
2018-06-13T14:44:18.948Z,100008.95
2018-06-13T14:45:27.874Z,99998.94
2018-06-13T14:46:36.631Z,99998.98
2018-06-13T14:47:43.891Z,99999.91
2018-06-13T14:48:52.918Z,100006.87
2018-06-13T14:50:00.142Z,100004.15
2018-06-13T14:51:08.386Z,100001.73
2018-06-13T14:52:15.086Z,100006.47
2018-06-13T14:53:22.192Z,100000.52
2018-06-13T14:54:29.477Z,100000.27
2018-06-13T14:55:42.333Z,99995.29
2018-06-13T14:56:49.600Z,99998.69
2018-06-13T14:57:56.826Z,100000.23
2018-06-13T14:59:05.190Z,100000.09
2018-06-13T15:00:12.400Z,99997.70
2018-06-13T15:01:19.235Z,100005.21
2018-06-13T15:02:26.642Z,100000.97
2018-06-13T15:03:32.741Z,100007.88
2018-06-13T15:04:40.072Z,99998.02
2018-06-13T15:05:46.892Z,100001.42
2018-06-13T15:06:54.414Z,100007.45
2018-06-13T15:08:01.764Z,100006.58
2018-06-13T15:09:11.481Z,100002.33
2018-06-13T15:10:17.921Z,100004.46
2018-06-13T15:11:26.163Z,100004.95
2018-06-13T15:12:33.635Z,100004.91
2018-06-13T15:13:41.277Z,100012.20
2018-06-13T15:14:48.596Z,100007.45
2018-06-13T15:15:55.344Z,100010.39
2018-06-13T15:17:02.137Z,100008.98
2018-06-13T15:18:10.020Z,100014.92
2018-06-13T15:19:18.212Z,100011.78
2018-06-13T15:20:24.997Z,100010.81
2018-06-13T15:21:32.280Z,100018.42
2018-06-13T15:22:39.526Z,100022.31
2018-06-13T15:23:45.968Z,100022.80
2018-06-13T15:24:52.992Z,100028.69
2018-06-13T15:25:59.929Z,100027.17
2018-06-13T15:27:06.824Z,100021.36
2018-06-13T15:28:14.277Z,100024.13
2018-06-13T15:29:21.245Z,100019.14
2018-06-13T15:30:28.336Z,100023.80
2018-06-13T15:31:35.508Z,100031.48
2018-06-13T15:32:42.468Z,100021.73
2018-06-13T15:33:49.493Z,100022.87
2018-06-13T15:34:56.502Z,100028.93
2018-06-13T15:36:03.584Z,100026.20
2018-06-13T15:37:11.368Z,100023.48
2018-06-13T15:38:18.347Z,100027.60
2018-06-13T15:39:25.392Z,100031.04
2018-06-13T15:40:32.941Z,100027.89
2018-06-13T15:41:41.265Z,100032.37
2018-06-13T15:42:48.451Z,100027.18
2018-06-13T15:43:55.661Z,100033.95
2018-06-13T15:45:02.648Z,100032.91
2018-06-13T15:46:10.254Z,100029.34
2018-06-13T15:47:17.413Z,100031.45
2018-06-13T15:48:24.579Z,100034.47
2018-06-13T15:49:34.122Z,100030.48
2018-06-13T15:50:42.001Z,100032.98
2018-06-13T15:51:49.238Z,100028.50
2018-06-13T15:52:58.099Z,100029.41
2018-06-13T15:54:05.941Z,100027.53
2018-06-13T15:55:13.539Z,100025.91
2018-06-13T15:56:20.401Z,100030.33
2018-06-13T15:57:27.966Z,100028.73
2018-06-13T15:58:35.479Z,100029.84
2018-06-13T15:59:42.051Z,100033.21
2018-06-13T16:00:49.393Z,100033.76
2018-06-13T16:01:57.313Z,100033.98
2018-06-13T16:03:04.385Z,100037.06
2018-06-13T16:04:11.954Z,100032.46
2018-06-13T16:05:19.073Z,100037.16
2018-06-13T16:06:26.460Z,100030.87
2018-06-13T16:07:33.591Z,100033.01
2018-06-13T16:08:42.221Z,100027.50
2018-06-13T16:09:49.334Z,100034.70
2018-06-13T16:10:57.328Z,100039.88
2018-06-13T16:12:05.188Z,100036.67
2018-06-13T16:13:12.420Z,100028.89
2018-06-13T16:14:19.726Z,100037.94
2018-06-13T16:15:27.260Z,100037.94
2018-06-13T16:16:34.495Z,100038.35
2018-06-13T16:17:42.358Z,100035.27
2018-06-13T16:18:49.626Z,100035.81
2018-06-13T16:19:58.612Z,100037.85
2018-06-13T16:21:06.035Z,100039.19
2018-06-13T16:22:14.817Z,100034.89
2018-06-13T16:23:25.051Z,100043.50
2018-06-13T16:24:32.545Z,100042.74
2018-06-13T16:25:40.479Z,100039.66
2018-06-13T16:26:48.280Z,100042.99
2018-06-13T16:27:55.766Z,100035.72
2018-06-13T16:29:03.509Z,100040.55
2018-06-13T16:30:11.514Z,100043.63
2018-06-13T16:31:19.312Z,100044.30
2018-06-13T16:32:27.150Z,100045.86
2018-06-13T16:33:34.799Z,100048.21
2018-06-13T16:34:42.407Z,100047.37
2018-06-13T16:35:50.984Z,100046.34
2018-06-13T16:36:59.433Z,100050.03
2018-06-13T16:38:07.139Z,100047.19
2018-06-13T16:39:16.004Z,100056.55
2018-06-13T16:40:25.143Z,100047.86
2018-06-13T16:41:33.149Z,100053.48
2018-06-13T16:42:40.526Z,100054.95
2018-06-13T16:43:50.329Z,100059.42
2018-06-13T16:44:58.318Z,100060.08
2018-06-13T16:46:07.113Z,100054.21
2018-06-13T16:47:15.109Z,100060.64
2018-06-13T16:48:23.956Z,100052.88
2018-06-13T16:49:33.733Z,100063.84
2018-06-13T16:50:58.157Z,100063.66
2018-06-13T16:52:20.360Z,100061.85
2018-06-13T16:53:53.645Z,100065.84
2018-06-13T16:55:25.611Z,100060.78
2018-06-13T16:56:32.860Z,100058.48
2018-06-13T16:57:40.260Z,100060.44
2018-06-13T16:58:47.861Z,100063.62
2018-06-13T16:59:56.388Z,100067.93
2018-06-13T17:01:05.096Z,100070.33
2018-06-13T17:02:12.323Z,100068.83
2018-06-13T17:03:19.481Z,100065.27
2018-06-13T17:04:27.380Z,100065.14
2018-06-13T17:05:35.537Z,100066.34
2018-06-13T17:06:42.538Z,100071.17
2018-06-13T17:07:49.722Z,100072.63
2018-06-13T17:08:58.529Z,100073.34
2018-06-13T17:10:07.060Z,100080.67
2018-06-13T17:11:15.409Z,100080.31
2018-06-13T17:12:24.149Z,100080.97
2018-06-13T17:13:31.748Z,100079.63
2018-06-13T17:14:40.004Z,100079.28
2018-06-13T17:15:47.736Z,100085.58
2018-06-13T17:16:56.124Z,100082.91
2018-06-13T17:18:03.858Z,100077.30
2018-06-13T17:19:11.402Z,100078.08
2018-06-13T17:20:19.605Z,100070.11
2018-06-13T17:21:27.020Z,100082.78
2018-06-13T17:22:35.196Z,100081.81
2018-06-13T17:23:43.092Z,100077.47
2018-06-13T17:24:51.406Z,100076.49
2018-06-13T17:26:01.158Z,100079.28
2018-06-13T17:27:10.541Z,100076.40
2018-06-13T17:28:23.278Z,100081.03
2018-06-13T17:29:32.196Z,100082.00
2018-06-13T17:30:42.528Z,100082.98
2018-06-13T17:31:49.291Z,100083.92
2018-06-13T17:32:57.824Z,100090.56
2018-06-13T17:34:10.922Z,100086.87
2018-06-13T17:35:19.258Z,100088.98
2018-06-13T17:36:27.674Z,100099.38
2018-06-13T17:37:35.089Z,100097.92
2018-06-13T17:38:43.890Z,100100.52
2018-06-13T17:39:53.570Z,100100.52
2018-06-13T17:41:02.202Z,100104.27
2018-06-13T17:42:11.796Z,100098.27
2018-06-13T17:43:19.390Z,100098.05
2018-06-13T17:44:27.647Z,100097.97
2018-06-13T17:45:37.565Z,100101.17
2018-06-13T17:46:46.737Z,100103.22
2018-06-13T17:47:55.015Z,100103.70
2018-06-13T17:49:06.267Z,100107.45
2018-06-13T17:50:15.044Z,100107.02
2018-06-13T17:51:22.940Z,100108.88
2018-06-13T17:52:30.185Z,100113.11
2018-06-13T17:53:38.079Z,100114.85
2018-06-13T17:54:46.049Z,100116.17
2018-06-13T17:55:53.450Z,100112.31
2018-06-13T17:57:01.229Z,100120.70
2018-06-13T17:58:10.026Z,100113.86
2018-06-13T17:59:17.201Z,100113.86
2018-06-13T18:00:26.053Z,100109.59
2018-06-13T18:01:34.159Z,100108.74
2018-06-13T18:02:43.585Z,100113.38
2018-06-13T18:03:51.194Z,100120.27
2018-06-13T18:05:00.037Z,100120.42
2018-06-13T18:06:08.986Z,100124.30
2018-06-13T18:07:17.833Z,100122.64
2018-06-13T18:08:26.087Z,100125.06
2018-06-13T18:09:33.788Z,100126.31
2018-06-13T18:10:41.839Z,100120.64
2018-06-13T18:11:50.418Z,100123.78
2018-06-13T18:12:58.141Z,100126.39
2018-06-13T18:14:05.213Z,100124.70
2018-06-13T18:15:12.465Z,100126.19
2018-06-13T18:16:22.227Z,100126.91
2018-06-13T18:17:32.319Z,100130.70
2018-06-13T18:18:41.070Z,100130.61
2018-06-13T18:19:48.612Z,100137.25
2018-06-13T18:20:56.404Z,100131.58
2018-06-13T18:22:04.579Z,100135.56
2018-06-13T18:23:12.326Z,100136.17
2018-06-13T18:24:21.378Z,100135.81
2018-06-13T18:25:29.015Z,100135.33
2018-06-13T18:26:37.217Z,100133.88
2018-06-13T18:27:44.547Z,100138.09
2018-06-13T18:28:52.081Z,100135.77
2018-06-13T18:29:58.959Z,100132.78
2018-06-13T18:31:06.158Z,100141.72
2018-06-13T18:32:12.825Z,100137.86
2018-06-13T18:33:20.601Z,100141.97
2018-06-13T18:34:29.771Z,100139.11
2018-06-13T18:35:37.641Z,100141.67
2018-06-13T18:36:45.043Z,100140.36
2018-06-13T18:37:52.535Z,100144.82
2018-06-13T18:39:00.482Z,100139.88
2018-06-13T18:40:07.765Z,100137.25
2018-06-13T18:41:19.613Z,100138.70
2018-06-13T18:42:27.666Z,100139.91
2018-06-13T18:43:35.484Z,100140.03
2018-06-13T18:44:45.208Z,100144.73
2018-06-13T18:45:54.696Z,100137.50
2018-06-13T18:47:04.172Z,100144.98
2018-06-13T18:48:12.620Z,100138.62
2018-06-13T18:49:20.684Z,100140.91
2018-06-13T18:50:28.692Z,100144.89
2018-06-13T18:51:36.453Z,100143.20
2018-06-13T18:52:43.869Z,100147.19
2018-06-13T18:53:52.368Z,100142.16
2018-06-13T18:55:02.982Z,100147.58
2018-06-13T18:56:16.569Z,100148.22
2018-06-13T18:57:23.215Z,100154.37
2018-06-13T18:58:30.224Z,100151.84
2018-06-13T18:59:38.806Z,100154.97
2018-06-13T19:00:48.091Z,100155.58
2018-06-13T19:01:56.409Z,100157.27
2018-06-13T19:03:05.047Z,100156.57
2018-06-13T19:04:12.880Z,100157.17
2018-06-13T19:05:21.605Z,100151.50
2018-06-13T19:06:29.581Z,100155.39
2018-06-13T19:07:39.631Z,100156.36
2018-06-13T19:08:52.173Z,100156.00
2018-06-13T19:10:00.089Z,100153.02
2018-06-13T19:11:07.644Z,100154.67
2018-06-13T19:12:15.779Z,100159.10
2018-06-13T19:13:23.780Z,100155.73
2018-06-13T19:14:31.088Z,100156.69
2018-06-13T19:15:38.765Z,100162.00
2018-06-13T19:16:46.524Z,100162.48
2018-06-13T19:17:55.594Z,100165.73
2018-06-13T19:19:05.181Z,100169.63
2018-06-13T19:20:14.869Z,100169.74
2018-06-13T19:21:23.433Z,100166.88
2018-06-13T19:22:32.453Z,100172.55
2018-06-13T19:23:40.849Z,100175.69
2018-06-13T19:24:50.996Z,100177.40
2018-06-13T19:26:01.665Z,100174.38
2018-06-13T19:27:10.998Z,100178.84
2018-06-13T19:28:19.274Z,100179.33
2018-06-13T19:29:28.490Z,100183.79
2018-06-13T19:30:38.059Z,100185.75
2018-06-13T19:31:47.105Z,100177.70
2018-06-13T19:32:54.429Z,100186.25
2018-06-13T19:34:04.380Z,100184.20
2018-06-13T19:35:16.100Z,100186.01
2018-06-13T19:36:23.573Z,100190.98
2018-06-13T19:37:33.826Z,100188.33
2018-06-13T19:38:42.029Z,100187.23
2018-06-13T19:39:49.762Z,100184.22
2018-06-13T19:40:58.835Z,100192.33
2018-06-13T19:42:06.514Z,100184.13
2018-06-13T19:43:20.779Z,100194.50
2018-06-13T19:44:29.557Z,100189.67
2018-06-13T19:45:37.952Z,100191.59
2018-06-13T19:46:45.758Z,100191.98
2018-06-13T19:47:57.685Z,100194.27
2018-06-13T19:49:06.304Z,100192.94
2018-06-13T19:50:15.196Z,100191.98
2018-06-13T19:51:22.434Z,100198.02
2018-06-13T19:52:34.653Z,100200.77
2018-06-13T19:53:47.808Z,100190.64
2018-06-13T19:55:00.566Z,100188.09
2018-06-13T19:56:10.632Z,100193.41
2018-06-13T19:57:18.336Z,100200.19
2018-06-13T19:58:27.749Z,100200.30
2018-06-13T19:59:39.973Z,100200.05
2018-06-13T20:00:48.009Z,100201.86
2018-06-13T20:01:59.544Z,100198.39
2018-06-13T20:03:12.475Z,100203.34
2018-06-13T20:04:26.865Z,100201.28
2018-06-13T20:05:42.348Z,100199.73
2018-06-13T20:06:53.270Z,100200.70
2018-06-13T20:08:03.175Z,100199.85
2018-06-13T20:09:12.081Z,100204.31
2018-06-13T20:10:19.309Z,100205.90
2018-06-13T20:11:26.585Z,100206.02
2018-06-13T20:12:46.286Z,100208.19
2018-06-13T20:13:59.947Z,100207.82
2018-06-13T20:15:11.904Z,100211.80
2018-06-13T20:16:40.221Z,100212.77
2018-06-13T20:17:52.449Z,100214.71
2018-06-13T20:19:06.520Z,100217.00
2018-06-13T20:20:14.536Z,100217.84
2018-06-13T20:21:25.300Z,100212.06
2018-06-13T20:22:33.400Z,100219.17
2018-06-13T20:23:48.050Z,100223.03
2018-06-13T20:25:01.304Z,100223.84
2018-06-13T20:26:14.692Z,100218.06
2018-06-13T20:27:27.955Z,100216.04
2018-06-13T20:28:41.536Z,100206.76
2018-06-13T20:29:56.121Z,100215.31
2018-06-13T20:31:09.076Z,100206.39
2018-06-13T20:32:18.642Z,100205.43
2018-06-13T20:33:26.877Z,100208.68
2018-06-13T20:34:35.445Z,100204.00
2018-06-13T20:35:50.489Z,100213.28
2018-06-13T20:37:00.612Z,100211.59
2018-06-13T20:38:09.556Z,100213.87
2018-06-13T20:39:18.853Z,100207.25
2018-06-13T20:40:27.816Z,100211.70
2018-06-13T20:41:37.666Z,100215.31
2018-06-13T20:42:53.471Z,100210.50
2018-06-13T20:44:02.154Z,100215.80
2018-06-13T20:45:09.915Z,100210.50
2018-06-13T20:46:19.844Z,100210.94
2018-06-13T20:47:29.651Z,100215.80
2018-06-13T20:48:40.142Z,100216.75
2018-06-13T20:49:49.473Z,100218.67
2018-06-13T20:51:01.810Z,100216.75
2018-06-13T20:52:09.961Z,100226.03
2018-06-13T20:53:18.709Z,100222.66
2018-06-13T20:54:27.356Z,100227.11
2018-06-13T20:55:36.311Z,100225.56
2018-06-13T20:56:46.064Z,100229.54
2018-06-13T20:57:55.914Z,100233.52
2018-06-13T20:59:07.150Z,100230.98
2018-06-13T21:00:15.533Z,100237.61
2018-06-13T21:01:25.047Z,100239.05
2018-06-13T21:02:33.536Z,100239.05
2018-06-13T21:03:41.974Z,100242.55
2018-06-13T21:04:53.659Z,100240.37
2018-06-13T21:06:02.576Z,100237.86
2018-06-13T21:07:11.395Z,100239.52
2018-06-13T21:08:19.304Z,100240.00
2018-06-13T21:09:32.907Z,100237.02
2018-06-13T21:10:41.600Z,100232.67
2018-06-13T21:11:51.513Z,100239.67
2018-06-13T21:12:59.500Z,100240.52
2018-06-13T21:14:08.671Z,100229.66
2018-06-13T21:15:16.139Z,100237.13
2018-06-13T21:16:25.308Z,100237.98
2018-06-13T21:17:32.488Z,100234.59
2018-06-13T21:18:44.819Z,100232.91
2018-06-13T21:19:52.603Z,100238.20
2018-06-13T21:21:02.126Z,100235.08
2018-06-13T21:22:11.491Z,100237.61
2018-06-13T21:23:19.110Z,100232.42
2018-06-13T21:24:28.293Z,100239.67
2018-06-13T21:25:36.366Z,100240.16
2018-06-13T21:26:44.504Z,100243.28
2018-06-13T21:27:51.344Z,100243.87
2018-06-13T21:29:01.216Z,100246.67
2018-06-13T21:30:09.119Z,100246.52
2018-06-13T21:31:19.229Z,100249.17
2018-06-13T21:32:26.673Z,100246.05
2018-06-13T21:33:34.553Z,100250.87
2018-06-13T21:34:42.852Z,100250.02
2018-06-13T21:35:51.179Z,100251.34
2018-06-13T21:36:59.191Z,100251.71
2018-06-13T21:38:07.736Z,100251.83
2018-06-13T21:39:17.166Z,100255.47
2018-06-13T21:40:25.582Z,100258.11
2018-06-13T21:41:33.060Z,100254.63
2018-06-13T21:42:41.137Z,100257.27
2018-06-13T21:43:48.464Z,100260.25
2018-06-13T21:44:56.805Z,100258.11
2018-06-13T21:46:08.303Z,100257.38
2018-06-13T21:47:16.416Z,100259.19
2018-06-13T21:48:23.751Z,100259.44
2018-06-13T21:49:31.166Z,100255.09
2018-06-13T21:50:38.314Z,100255.80
2018-06-13T21:51:46.268Z,100257.49
2018-06-13T21:52:53.929Z,100257.49
2018-06-13T21:54:01.563Z,100254.47
2018-06-13T21:55:09.180Z,100254.47
2018-06-13T21:56:16.553Z,100254.98
2018-06-13T21:57:24.893Z,100259.08
2018-06-13T21:58:32.819Z,100255.83
2018-06-13T21:59:40.108Z,100256.64
2018-06-13T22:00:47.469Z,100253.41
2018-06-13T22:01:56.206Z,100252.19
2018-06-13T22:03:03.774Z,100244.39
2018-06-13T22:04:10.859Z,100251.34
2018-06-13T22:05:19.357Z,100246.19
2018-06-13T22:06:28.680Z,100249.69
2018-06-13T22:07:36.696Z,100245.45
2018-06-13T22:08:44.311Z,100246.41
2018-06-13T22:09:52.583Z,100249.20
2018-06-13T22:11:00.206Z,100248.22
2018-06-13T22:12:07.446Z,100243.43
2018-06-13T22:13:14.945Z,100247.63
2018-06-13T22:14:23.732Z,100245.83
2018-06-13T22:15:31.700Z,100248.22
2018-06-13T22:16:39.216Z,100249.54
2018-06-13T22:17:47.462Z,100249.54
2018-06-13T22:18:54.587Z,100250.87
2018-06-13T22:20:01.137Z,100251.72
2018-06-13T22:21:07.109Z,100254.73
2018-06-13T22:22:14.560Z,100257.86
2018-06-13T22:23:20.543Z,100251.72
2018-06-13T22:24:26.633Z,100260.14
2018-06-13T22:25:32.622Z,100261.47
2018-06-13T22:26:39.722Z,100268.45
2018-06-13T22:27:45.845Z,100265.95
2018-06-13T22:28:52.246Z,100268.94
2018-06-13T22:29:58.406Z,100269.08
2018-06-13T22:31:04.354Z,100272.80
2018-06-13T22:32:10.556Z,100273.75
2018-06-13T22:33:16.542Z,100265.95
2018-06-13T22:34:22.166Z,100269.44
2018-06-13T22:35:28.033Z,100269.08
2018-06-13T22:36:33.622Z,100265.95
2018-06-13T22:37:39.499Z,100270.25
2018-06-13T22:38:45.722Z,100273.05
2018-06-13T22:39:51.706Z,100267.49
2018-06-13T22:40:57.673Z,100269.66
2018-06-13T22:42:03.631Z,100274.59
2018-06-13T22:43:09.843Z,100272.79
2018-06-13T22:44:15.987Z,100273.16
2018-06-13T22:45:21.988Z,100270.87
2018-06-13T22:46:27.967Z,100269.66
2018-06-13T22:47:33.727Z,100270.14
2018-06-13T22:48:39.898Z,100272.31
2018-06-13T22:49:46.163Z,100270.87
2018-06-13T22:50:52.323Z,100268.23
2018-06-13T22:51:58.811Z,100264.25
2018-06-13T22:53:04.756Z,100262.45
2018-06-13T22:54:10.710Z,100263.30
2018-06-13T22:55:16.690Z,100259.80
2018-06-13T22:56:22.349Z,100267.75
2018-06-13T22:57:28.297Z,100263.30
2018-06-13T22:58:34.252Z,100266.53
2018-06-13T22:59:40.224Z,100266.16
2018-06-13T23:01:09.176Z,100265.32
2018-06-13T23:02:15.630Z,100266.05
2018-06-13T23:03:24.185Z,100259.43
2018-06-13T23:04:31.547Z,100262.92
2018-06-13T23:05:38.798Z,100264.36
2018-06-13T23:06:45.376Z,100261.23